Time;durP1;ratioP1;P1;durP2;ratioP2;P2;SDS_P1;SDS_P2;PMS_P1;PMS_P2;Temp;Humidity;BMP_temperature;BMP_pressure;BME280_temperature;BME280_humidity;BME280_pressure;Samples;Min_cycle;Max_cycle;Signal;HPM_P1;HPM_P2
2023/05/11 00:01:59;;;;;;;;;;;;;;;14.56;75.53;100939.00;4115545;28;19933;-66
2023/05/11 00:04:01;;;;;;;;;;;;;;;14.57;75.35;100944.25;4116617;28;20045;-66
2023/05/11 00:06:03;;;;;;;;;;;;;;;14.57;75.13;100938.00;4115894;28;20040;-66
2023/05/11 00:08:06;;;;;;;;;;;;;;;14.48;75.07;100944.59;4116271;28;20016;-65
2023/05/11 00:10:08;;;;;;;;;;;;;;;14.45;75.31;100942.28;4116212;28;20511;-66
2023/05/11 00:12:11;;;;;;;;;;;;;;;14.40;75.40;100938.31;4116365;28;20021;-66
2023/05/11 00:14:14;;;;;;;;;;;;;;;14.37;75.66;100935.97;4116440;28;19936;-65
2023/05/11 00:16:16;;;;;;;;;;;;;;;14.37;75.82;100932.41;4114559;28;20020;-66
2023/05/11 00:18:18;;;;;;;;;;;;;;;14.33;75.66;100926.53;4114689;28;20374;-65
2023/05/11 00:20:22;;;;;;;;;;;;;;;14.33;75.66;100926.53;4116352;28;20424;-66
2023/05/11 00:22:24;;;;;;;;;;;;;;;14.30;75.58;100931.53;4115571;28;20448;-66
2023/05/11 00:24:26;;;;;;;;;;;;;;;14.23;75.45;100935.03;4115273;28;20021;-65
2023/05/11 00:26:28;;;;;;;;;;;;;;;14.21;75.62;100930.81;4116208;28;20033;-65
2023/05/11 00:28:30;;;;;;;;;;;;;;;14.20;75.89;100940.84;4116264;28;20012;-66
2023/05/11 00:30:33;;;;;;;;;;;;;;;14.18;76.00;100934.75;4115254;28;20037;-65
2023/05/11 00:32:36;;;;;;;;;;;;;;;14.14;76.00;100936.22;4113645;28;20016;-65
2023/05/11 00:34:38;;;;;;;;;;;;;;;14.11;76.04;100936.59;4116468;28;20000;-65
2023/05/11 00:36:41;;;;;;;;;;;;;;;14.12;76.11;100937.44;4115143;28;20500;-65
2023/05/11 00:38:43;;;;;;;;;;;;;;;14.13;76.34;100929.09;4115730;28;20013;-65
2023/05/11 00:40:45;;;;;;;;;;;;;;;14.15;76.04;100927.03;4114800;28;20018;-65
2023/05/11 00:42:47;;;;;;;;;;;;;;;14.13;76.01;100931.81;4115583;28;20025;-66
2023/05/11 00:44:49;;;;;;;;;;;;;;;14.09;76.13;100932.38;4114575;28;20016;-65
2023/05/11 00:46:53;;;;;;;;;;;;;;;14.01;76.20;100934.22;4115729;28;20020;-65
2023/05/11 00:48:55;;;;;;;;;;;;;;;13.98;76.29;100941.88;4115259;28;20020;-66
2023/05/11 00:50:57;;;;;;;;;;;;;;;13.93;76.49;100945.19;4115914;28;20048;-66
2023/05/11 00:52:59;;;;;;;;;;;;;;;13.90;76.30;100936.59;4121861;28;20032;-65
2023/05/11 00:55:01;;;;;;;;;;;;;;;13.85;76.41;100931.75;4114897;28;19926;-66
2023/05/11 00:57:04;;;;;;;;;;;;;;;13.82;76.56;100929.44;4113791;28;19969;-65
2023/05/11 00:59:06;;;;;;;;;;;;;;;13.78;76.53;100934.41;4115945;28;20029;-65
2023/05/11 01:01:08;;;;;;;;;;;;;;;13.76;76.19;100931.06;4115202;28;20009;-65
2023/05/11 01:03:13;;;;;;;;;;;;;;;13.75;76.60;100936.69;4112482;28;20445;-65
2023/05/11 01:05:15;;;;;;;;;;;;;;;13.72;76.45;100937.06;4115771;28;20072;-65
2023/05/11 01:07:19;;;;;;;;;;;;;;;13.68;76.41;100942.88;4114796;28;20033;-65
2023/05/11 01:09:29;;;;;;;;;;;;;;;13.74;76.49;100943.97;4121912;28;20017;-65
2023/05/11 01:11:34;;;;;;;;;;;;;;;13.76;76.47;100931.06;4113801;28;20721;-65
2023/05/11 01:13:37;;;;;;;;;;;;;;;13.78;76.06;100936.28;4122431;28;20052;-65
2023/05/11 01:15:44;;;;;;;;;;;;;;;13.76;76.14;100946.47;4130012;28;20487;-66
2023/05/11 01:17:49;;;;;;;;;;;;;;;13.81;76.19;100939.44;4121525;28;20033;-65
2023/05/11 01:19:56;;;;;;;;;;;;;;;13.79;76.13;100940.66;4120900;28;20017;-65
2023/05/11 01:21:58;;;;;;;;;;;;;;;13.74;75.75;100949.38;4113878;28;20594;-65
2023/05/11 01:24:24;;;;;;;;;;;;;;;13.67;76.10;100945.78;4113784;28;20128;-66
2023/05/11 01:26:40;;;;;;;;;;;;;;;13.60;76.56;100948.41;4113026;28;20017;-65
2023/05/11 01:28:50;;;;;;;;;;;;;;;13.67;77.35;100943.91;4102214;28;20021;-65
2023/05/11 01:30:55;;;;;;;;;;;;;;;13.72;76.76;100953.34;4114766;28;20029;-65
2023/05/11 01:32:58;;;;;;;;;;;;;;;13.70;76.13;100943.50;4121279;28;20013;-65
2023/05/11 01:35:03;;;;;;;;;;;;;;;13.67;76.24;100943.91;4130087;28;20037;-65
2023/05/11 01:37:06;;;;;;;;;;;;;;;13.66;76.93;100950.34;4114891;28;20369;-65
2023/05/11 01:39:08;;;;;;;;;;;;;;;13.66;76.99;100953.06;4114242;28;20040;-65
2023/05/11 01:41:12;;;;;;;;;;;;;;;13.65;76.89;100945.97;4114499;28;20014;-65
2023/05/11 01:43:14;;;;;;;;;;;;;;;13.63;76.79;100950.72;4114270;28;20032;-65
2023/05/11 01:45:16;;;;;;;;;;;;;;;13.61;77.13;100955.53;4113316;28;20492;-66
2023/05/11 01:47:21;;;;;;;;;;;;;;;13.57;77.10;100953.38;4114052;28;20024;-65
2023/05/11 01:49:25;;;;;;;;;;;;;;;13.54;77.50;100957.31;4113860;28;20448;-65
2023/05/11 01:51:28;;;;;;;;;;;;;;;13.54;77.40;100959.19;4112808;28;20491;-65
2023/05/11 01:53:31;;;;;;;;;;;;;;;13.50;77.28;100954.16;4112768;28;20019;-65
2023/05/11 01:55:34;;;;;;;;;;;;;;;13.52;77.37;100959.38;4114745;28;20041;-65
2023/05/11 01:57:36;;;;;;;;;;;;;;;13.49;77.51;100960.63;4114278;28;19965;-65
2023/05/11 01:59:39;;;;;;;;;;;;;;;13.44;77.16;100956.78;4105264;28;20049;-66
2023/05/11 02:01:41;;;;;;;;;;;;;;;13.42;77.06;100954.28;4109974;28;20021;-66
2023/05/11 02:03:44;;;;;;;;;;;;;;;13.41;76.86;100966.13;4111567;28;20024;-66
2023/05/11 02:05:47;;;;;;;;;;;;;;;13.44;76.85;100968.47;4121461;28;20025;-65
2023/05/11 02:07:49;;;;;;;;;;;;;;;13.44;76.61;100965.75;4119506;28;20032;-66
2023/05/11 02:09:51;;;;;;;;;;;;;;;13.40;76.16;100963.63;4114206;28;20013;-65
2023/05/11 02:11:53;;;;;;;;;;;;;;;13.35;76.36;100966.91;4120412;28;20029;-66
2023/05/11 02:13:55;;;;;;;;;;;;;;;13.33;76.72;100971.69;4114446;28;20033;-66
2023/05/11 02:15:57;;;;;;;;;;;;;;;13.32;77.02;100968.09;4106507;28;20396;-64
2023/05/11 02:18:00;;;;;;;;;;;;;;;13.34;77.04;100976.91;4119944;28;20396;-65
2023/05/11 02:20:04;;;;;;;;;;;;;;;13.34;76.94;100979.63;4113365;28;20445;-65
2023/05/11 02:22:07;;;;;;;;;;;;;;;13.36;76.77;100978.59;4119940;28;20017;-65
2023/05/11 02:24:09;;;;;;;;;;;;;;;13.37;76.82;100977.56;4113349;28;20045;-65
2023/05/11 02:26:11;;;;;;;;;;;;;;;13.38;77.13;100976.53;4113238;28;20661;-65
2023/05/11 02:28:13;;;;;;;;;;;;;;;13.37;77.71;100974.84;4110666;28;20029;-65
2023/05/11 02:30:15;;;;;;;;;;;;;;;13.37;78.02;100977.56;4112925;28;20021;-65
2023/05/11 02:32:18;;;;;;;;;;;;;;;13.38;78.50;100984.69;4118960;28;20020;-65
2023/05/11 02:34:21;;;;;;;;;;;;;;;13.37;78.27;100974.84;4113588;28;20028;-66
2023/05/11 02:36:25;;;;;;;;;;;;;;;13.34;78.39;100981.50;4111246;28;20021;-65
2023/05/11 02:38:30;;;;;;;;;;;;;;;13.31;78.60;100984.56;4112213;28;20029;-65
2023/05/11 02:40:33;;;;;;;;;;;;;;;13.30;78.66;100981.00;4117818;28;20021;-65
2023/05/11 02:42:36;;;;;;;;;;;;;;;13.31;78.78;100982.69;4110657;28;20021;-65
2023/05/11 02:44:39;;;;;;;;;;;;;;;13.34;78.46;100986.94;4103709;28;20031;-65
2023/05/11 02:46:41;;;;;;;;;;;;;;;13.39;78.31;100986.38;4104563;28;20021;-66
2023/05/11 02:48:44;;;;;;;;;;;;;;;13.43;78.59;100979.50;4111783;28;20563;-66
2023/05/11 02:50:47;;;;;;;;;;;;;;;13.49;77.88;100978.75;4120856;28;20020;-66
2023/05/11 02:52:51;;;;;;;;;;;;;;;13.56;77.51;100982.41;4111845;28;20052;-67
2023/05/11 02:54:53;;;;;;;;;;;;;;;13.62;76.47;100981.63;4120121;28;20028;-66
2023/05/11 02:56:55;;;;;;;;;;;;;;;13.64;76.17;100971.41;4118038;28;20028;-65
2023/05/11 02:58:58;;;;;;;;;;;;;;;13.66;76.12;100973.94;4112783;28;20024;-65
2023/05/11 03:01:01;;;;;;;;;;;;;;;13.63;75.75;100977.88;4110920;28;20024;-65
2023/05/11 03:03:03;;;;;;;;;;;;;;;13.60;75.63;100977.44;4119600;28;20028;-65
2023/05/11 03:05:06;;;;;;;;;;;;;;;13.59;75.91;100982.03;4112545;28;20009;-66
2023/05/11 03:07:08;;;;;;;;;;;;;;;13.57;75.64;100983.22;4113284;28;20551;-65
2023/05/11 03:09:11;;;;;;;;;;;;;;;13.56;75.31;100984.25;4111680;28;20477;-66
2023/05/11 03:11:20;;;;;;;;;;;;;;;13.52;75.40;100978.38;4113226;28;21111;-66
2023/05/11 03:13:23;;;;;;;;;;;;;;;13.57;75.25;100984.06;4119782;28;20033;-66
2023/05/11 03:15:28;;;;;;;;;;;;;;;13.60;74.79;100988.28;4103992;28;20585;-66
2023/05/11 03:17:32;;;;;;;;;;;;;;;13.55;74.84;100985.31;4120464;28;20052;-66
2023/05/11 03:19:34;;;;;;;;;;;;;;;13.47;75.22;100987.09;4113776;28;19930;-66
2023/05/11 03:21:36;;;;;;;;;;;;;;;13.38;75.10;100984.69;4110789;28;20057;-66
2023/05/11 03:23:38;;;;;;;;;;;;;;;13.37;75.69;100988.41;4120236;28;20422;-65
2023/05/11 03:25:42;;;;;;;;;;;;;;;13.43;75.10;100979.50;4111957;28;20582;-65
2023/05/11 03:27:46;;;;;;;;;;;;;;;13.45;74.75;100985.63;4119926;28;20020;-66
2023/05/11 03:29:49;;;;;;;;;;;;;;;13.49;74.83;100982.34;4103093;28;20464;-65
2023/05/11 03:31:51;;;;;;;;;;;;;;;13.59;74.16;100982.03;4119336;28;20021;-65
2023/05/11 03:33:55;;;;;;;;;;;;;;;13.67;73.06;100987.31;4119237;28;20392;-66
2023/05/11 03:35:58;;;;;;;;;;;;;;;13.74;72.14;100986.56;4111447;28;20028;-66
2023/05/11 03:38:00;;;;;;;;;;;;;;;13.77;71.61;100992.44;4111541;28;20373;-66
2023/05/11 03:40:02;;;;;;;;;;;;;;;13.79;71.31;100990.41;4111539;28;19934;-66
2023/05/11 03:42:12;;;;;;;;;;;;;;;13.74;71.23;100981.97;4108431;28;20032;-65
2023/05/11 03:44:15;;;;;;;;;;;;;;;13.66;71.56;100982.91;4119020;28;20142;-66
2023/05/11 03:46:17;;;;;;;;;;;;;;;13.66;71.97;100990.22;4113267;28;20017;-65
2023/05/11 03:48:20;;;;;;;;;;;;;;;13.65;71.77;100992.13;4110867;28;20025;-66
2023/05/11 03:50:22;;;;;;;;;;;;;;;13.64;71.69;100986.88;4112941;28;20488;-65
2023/05/11 03:52:25;;;;;;;;;;;;;;;13.62;71.30;100989.78;4118669;28;20100;-66
2023/05/11 03:54:26;;;;;;;;;;;;;;;13.60;71.37;100991.81;4119175;28;20029;-66
2023/05/11 03:56:28;;;;;;;;;;;;;;;13.63;71.30;100990.63;4119966;28;20025;-65
2023/05/11 03:58:32;;;;;;;;;;;;;;;13.63;70.87;100987.91;4112724;28;20029;-65
2023/05/11 04:00:37;;;;;;;;;;;;;;;13.70;70.37;100986.94;4112660;28;19933;-65
2023/05/11 04:02:39;;;;;;;;;;;;;;;13.79;69.60;100993.09;4110261;28;20016;-65
2023/05/11 04:04:41;;;;;;;;;;;;;;;13.85;69.07;100994.19;4119707;28;20021;-66
2023/05/11 04:06:43;;;;;;;;;;;;;;;13.90;68.92;100991.72;4107612;28;20021;-66
2023/05/11 04:08:53;;;;;;;;;;;;;;;13.93;68.52;100988.63;4121663;28;20036;-66
2023/05/11 04:10:56;;;;;;;;;;;;;;;13.96;68.08;100988.25;4115255;28;20021;-65
2023/05/11 04:12:58;;;;;;;;;;;;;;;14.01;67.41;100985.81;4113079;28;20388;-65
2023/05/11 04:15:01;;;;;;;;;;;;;;;14.07;67.34;100989.63;4116238;28;20429;-65
2023/05/11 04:17:03;;;;;;;;;;;;;;;14.13;66.82;100988.84;4118123;28;20033;-65
2023/05/11 04:19:06;;;;;;;;;;;;;;;14.17;66.55;100989.28;4113532;28;20045;-66
2023/05/11 04:21:08;;;;;;;;;;;;;;;14.20;66.82;100988.88;4122631;28;19930;-65
2023/05/11 04:23:10;;;;;;;;;;;;;;;14.20;66.28;100994.31;4113599;28;20030;-65
2023/05/11 04:25:13;;;;;;;;;;;;;;;14.19;66.48;100995.38;4114136;28;20022;-65
2023/05/11 04:27:15;;;;;;;;;;;;;;;14.22;66.33;100997.72;4114335;28;20013;-66
2023/05/11 04:29:17;;;;;;;;;;;;;;;14.27;66.04;100997.13;4114748;28;20040;-66
2023/05/11 04:31:21;;;;;;;;;;;;;;;14.30;65.84;100996.75;4115735;28;20025;-66
2023/05/11 04:33:24;;;;;;;;;;;;;;;14.32;65.87;100998.19;4112653;28;20025;-65
2023/05/11 04:35:26;;;;;;;;;;;;;;;14.35;65.55;101005.97;4121089;28;20021;-65
2023/05/11 04:37:28;;;;;;;;;;;;;;;14.41;65.32;101004.34;4111877;28;20009;-65
2023/05/11 04:39:30;;;;;;;;;;;;;;;14.42;65.23;101006.88;4113217;28;20361;-65
2023/05/11 04:41:32;;;;;;;;;;;;;;;14.40;65.44;101000.81;4122106;28;19926;-65
2023/05/11 04:43:35;;;;;;;;;;;;;;;14.42;65.68;101000.59;4121649;28;19925;-64
2023/05/11 04:45:37;;;;;;;;;;;;;;;14.46;65.44;101007.31;4120731;28;20017;-64
2023/05/11 04:47:41;;;;;;;;;;;;;;;14.49;64.98;101006.09;4111997;28;20045;-65
2023/05/11 04:49:44;;;;;;;;;;;;;;;14.54;64.93;101006.34;4119616;28;20455;-65
2023/05/11 04:51:47;;;;;;;;;;;;;;;14.56;64.71;101007.81;4089134;29;20013;-66
2023/05/11 04:53:50;;;;;;;;;;;;;;;14.57;64.38;101012.22;4105045;28;20033;-66
2023/05/11 04:55:53;;;;;;;;;;;;;;;14.57;64.83;101011.38;4120071;28;20037;-66
2023/05/11 04:57:56;;;;;;;;;;;;;;;14.60;64.64;101014.56;4111813;28;20032;-65
2023/05/11 04:59:59;;;;;;;;;;;;;;;14.63;64.54;101015.22;4113040;28;20024;-65
2023/05/11 05:02:01;;;;;;;;;;;;;;;14.64;64.62;101012.31;4104922;28;19954;-65
2023/05/11 05:04:04;;;;;;;;;;;;;;;14.69;64.67;101017.16;4113941;28;19973;-64
2023/05/11 05:06:09;;;;;;;;;;;;;;;14.73;64.33;101022.00;4104356;28;20450;-66
2023/05/11 05:08:12;;;;;;;;;;;;;;;14.76;64.35;101018.03;4075528;29;19935;-64
2023/05/11 05:10:14;;;;;;;;;;;;;;;14.75;64.19;101019.91;4113821;28;20013;-64
2023/05/11 05:12:18;;;;;;;;;;;;;;;14.80;64.21;101023.94;4109891;28;20021;-64
2023/05/11 05:14:20;;;;;;;;;;;;;;;14.84;63.86;101019.75;4111941;28;20029;-65
2023/05/11 05:16:22;;;;;;;;;;;;;;;14.85;64.42;101024.16;4114577;28;20025;-65
2023/05/11 05:18:25;;;;;;;;;;;;;;;14.86;64.01;101020.41;4113051;28;20057;-65
2023/05/11 05:20:28;;;;;;;;;;;;;;;14.87;63.81;101020.19;4122205;28;20016;-65
2023/05/11 05:22:30;;;;;;;;;;;;;;;14.90;63.92;101021.69;4114969;28;19930;-64
2023/05/11 05:24:32;;;;;;;;;;;;;;;14.95;63.59;101027.38;4112005;28;20061;-65
2023/05/11 05:26:35;;;;;;;;;;;;;;;14.96;63.86;101027.16;4121576;28;20395;-64
2023/05/11 05:28:38;;;;;;;;;;;;;;;14.98;63.71;101021.53;4112842;28;20573;-65
2023/05/11 05:30:40;;;;;;;;;;;;;;;15.01;63.67;101025.75;4113286;28;20021;-65
2023/05/11 05:32:42;;;;;;;;;;;;;;;15.06;63.36;101029.56;4112669;28;20033;-64
2023/05/11 05:34:45;;;;;;;;;;;;;;;15.13;62.23;101029.59;4120171;28;20025;-63
2023/05/11 05:36:49;;;;;;;;;;;;;;;15.18;62.33;101031.72;4120749;28;20395;-65
2023/05/11 05:38:52;;;;;;;;;;;;;;;15.22;62.04;101033.81;4112766;28;20360;-65
2023/05/11 05:40:54;;;;;;;;;;;;;;;15.20;61.57;101029.63;4112951;28;20013;-66
2023/05/11 05:42:56;;;;;;;;;;;;;;;15.20;61.82;101035.88;4111426;28;20582;-66
2023/05/11 05:44:59;;;;;;;;;;;;;;;15.26;61.73;101035.09;4119416;28;20032;-66
2023/05/11 05:47:02;;;;;;;;;;;;;;;15.30;61.26;101032.81;4120088;28;20025;-66
2023/05/11 05:49:07;;;;;;;;;;;;;;;15.30;61.50;101025.50;4110442;28;20573;-66
2023/05/11 05:51:12;;;;;;;;;;;;;;;15.32;61.10;101045.16;4119137;28;20041;-66
2023/05/11 05:53:18;;;;;;;;;;;;;;;15.38;60.61;101038.09;4119755;28;20044;-66
2023/05/11 05:55:21;;;;;;;;;;;;;;;15.37;60.62;101046.47;4113681;28;20024;-66
2023/05/11 05:57:25;;;;;;;;;;;;;;;15.38;60.83;101045.44;4120378;28;20028;-66
2023/05/11 05:59:28;;;;;;;;;;;;;;;15.44;60.64;101041.91;4110377;28;19981;-66
2023/05/11 06:01:33;;;;;;;;;;;;;;;15.51;59.92;101042.75;4119130;28;20009;-66
2023/05/11 06:03:35;;;;;;;;;;;;;;;15.54;59.93;101046.97;4120096;28;20069;-67
2023/05/11 06:05:38;;;;;;;;;;;;;;;15.56;59.87;101051.16;4104304;28;20391;-66
2023/05/11 06:07:41;;;;;;;;;;;;;;;15.64;59.20;101045.56;4110673;28;20016;-67
2023/05/11 06:09:46;;;;;;;;;;;;;;;15.63;58.83;101046.59;4111729;28;19930;-66
2023/05/11 06:11:49;;;;;;;;;;;;;;;15.67;58.63;101047.88;4113444;28;19930;-66
2023/05/11 06:13:51;;;;;;;;;;;;;;;15.68;58.57;101049.53;4103629;28;20875;-66
2023/05/11 06:15:53;;;;;;;;;;;;;;;15.72;58.43;101049.97;4119644;28;20048;-66
2023/05/11 06:18:03;;;;;;;;;;;;;;;15.78;58.46;101049.19;4104879;28;20862;-66
2023/05/11 06:20:06;;;;;;;;;;;;;;;15.82;57.66;101055.91;4104844;28;20021;-66
2023/05/11 06:22:08;;;;;;;;;;;;;;;15.80;57.68;101049.81;4120048;28;20369;-66
2023/05/11 06:24:15;;;;;;;;;;;;;;;15.89;57.80;101049.63;4119858;28;19934;-67
2023/05/11 06:26:23;;;;;;;;;;;;;;;15.93;57.67;101048.19;4111840;28;20057;-66
2023/05/11 06:28:26;;;;;;;;;;;;;;;15.91;57.43;101050.25;4120327;28;20040;-66
2023/05/11 06:30:34;;;;;;;;;;;;;;;15.92;57.87;101046.50;4112302;28;20042;-67
2023/05/11 06:32:37;;;;;;;;;;;;;;;15.90;57.81;101054.88;4119441;28;20020;-66
2023/05/11 06:34:40;;;;;;;;;;;;;;;15.95;57.73;101055.09;4120228;28;20028;-66
2023/05/11 06:36:45;;;;;;;;;;;;;;;15.97;57.51;101054.88;4120656;28;20028;-66
2023/05/11 06:38:50;;;;;;;;;;;;;;;15.98;57.65;101048.41;4113167;28;19926;-66
2023/05/11 06:40:52;;;;;;;;;;;;;;;16.02;57.32;101055.97;4112393;28;20017;-66
2023/05/11 06:42:55;;;;;;;;;;;;;;;16.04;57.46;101048.41;4119907;28;20390;-66
2023/05/11 06:44:57;;;;;;;;;;;;;;;16.06;57.32;101053.66;4113227;28;20469;-66
2023/05/11 06:46:59;;;;;;;;;;;;;;;16.09;57.08;101052.44;4112609;28;20017;-66
2023/05/11 06:49:01;;;;;;;;;;;;;;;16.07;56.90;101055.34;4111134;28;20024;-66
2023/05/11 06:51:05;;;;;;;;;;;;;;;16.11;57.16;101053.91;4112669;28;20353;-66
2023/05/11 06:53:09;;;;;;;;;;;;;;;16.15;57.09;101054.31;4111595;28;20057;-66
2023/05/11 06:55:13;;;;;;;;;;;;;;;16.23;57.18;101056.84;4112794;28;20472;-66
2023/05/11 06:57:15;;;;;;;;;;;;;;;16.28;56.88;101059.78;4111229;28;20068;-67
2023/05/11 06:59:19;;;;;;;;;;;;;;;16.33;56.82;101051.00;4112384;28;20029;-67
2023/05/11 07:01:22;;;;;;;;;;;;;;;16.36;56.46;101048.72;4113657;28;20065;-66
2023/05/11 07:03:24;;;;;;;;;;;;;;;16.39;56.40;101059.19;4112930;28;20024;-67
2023/05/11 07:05:26;;;;;;;;;;;;;;;16.39;56.12;101050.16;4112726;28;20076;-66
2023/05/11 07:07:28;;;;;;;;;;;;;;;16.44;55.71;101047.66;4113296;28;20020;-66
2023/05/11 07:09:30;;;;;;;;;;;;;;;16.47;56.18;101055.41;4113266;28;20029;-67
2023/05/11 07:11:32;;;;;;;;;;;;;;;16.49;55.97;101047.88;4112064;28;20021;-65
2023/05/11 07:13:34;;;;;;;;;;;;;;;16.51;55.35;101059.41;4112516;28;20052;-66
2023/05/11 07:15:37;;;;;;;;;;;;;;;16.56;55.67;101050.59;4112946;28;20424;-66
2023/05/11 07:17:39;;;;;;;;;;;;;;;16.58;55.60;101052.06;4112706;28;20018;-66
2023/05/11 07:19:41;;;;;;;;;;;;;;;16.64;55.89;101055.00;4113177;28;20452;-67
2023/05/11 07:21:43;;;;;;;;;;;;;;;16.69;55.62;101055.22;4112072;28;20028;-66
2023/05/11 07:23:45;;;;;;;;;;;;;;;16.72;55.63;101060.25;4113264;28;20018;-67
2023/05/11 07:25:48;;;;;;;;;;;;;;;16.75;55.37;101051.63;4111639;28;20365;-65
2023/05/11 07:27:50;;;;;;;;;;;;;;;16.75;55.41;101057.97;4113210;28;20033;-66
2023/05/11 07:29:52;;;;;;;;;;;;;;;16.80;55.63;101054.56;4119866;28;20005;-66
2023/05/11 07:31:55;;;;;;;;;;;;;;;16.85;55.41;101060.25;4111784;28;20008;-66
2023/05/11 07:33:57;;;;;;;;;;;;;;;16.91;55.23;101055.84;4111264;28;20044;-66
2023/05/11 07:35:59;;;;;;;;;;;;;;;16.93;55.25;101049.16;4113402;28;20017;-67
2023/05/11 07:38:02;;;;;;;;;;;;;;;16.95;55.00;101059.03;4112698;28;20036;-66
2023/05/11 07:40:05;;;;;;;;;;;;;;;16.97;55.07;101056.91;4112743;28;20013;-66
2023/05/11 07:42:07;;;;;;;;;;;;;;;16.97;54.44;101057.75;4114607;28;20033;-66
2023/05/11 07:44:10;;;;;;;;;;;;;;;16.99;55.07;101057.53;4113831;28;20042;-66
2023/05/11 07:46:12;;;;;;;;;;;;;;;17.03;54.78;101053.34;4115853;28;20404;-66
2023/05/11 07:48:16;;;;;;;;;;;;;;;17.06;54.77;101059.19;4116181;28;20025;-67
2023/05/11 07:50:18;;;;;;;;;;;;;;;17.10;54.62;101059.63;4115715;28;20025;-66
2023/05/11 07:52:20;;;;;;;;;;;;;;;17.14;54.20;101052.69;4115241;28;20034;-66
2023/05/11 07:54:22;;;;;;;;;;;;;;;17.17;54.31;101052.25;4114898;28;20017;-66
2023/05/11 07:56:25;;;;;;;;;;;;;;;17.17;54.09;101051.44;4115123;28;20030;-66
2023/05/11 07:58:27;;;;;;;;;;;;;;;17.17;54.52;101054.16;4115070;28;20010;-66
2023/05/11 08:00:29;;;;;;;;;;;;;;;17.25;54.01;101056.66;4115840;28;20436;-66
2023/05/11 08:02:31;;;;;;;;;;;;;;;17.29;54.07;101039.63;4115087;28;20016;-66
2023/05/11 08:04:35;;;;;;;;;;;;;;;17.25;53.92;101052.00;4115602;28;20496;-66
2023/05/11 08:06:37;;;;;;;;;;;;;;;17.25;54.43;101053.91;4093473;28;20456;-66
2023/05/11 08:08:39;;;;;;;;;;;;;;;17.33;53.89;101053.69;4091963;29;20013;-66
2023/05/11 08:10:41;;;;;;;;;;;;;;;17.36;53.81;101047.78;4092580;29;20051;-66
2023/05/11 08:12:43;;;;;;;;;;;;;;;17.40;53.49;101056.41;4091909;29;20013;-66
2023/05/11 08:14:45;;;;;;;;;;;;;;;17.40;53.71;101050.94;4091688;29;20476;-66
2023/05/11 08:16:48;;;;;;;;;;;;;;;17.39;53.55;101043.81;4092247;29;20591;-66
2023/05/11 08:18:50;;;;;;;;;;;;;;;17.45;53.38;101046.50;4091925;29;20065;-66
2023/05/11 08:20:53;;;;;;;;;;;;;;;17.49;53.51;101049.63;4092439;29;20024;-66
2023/05/11 08:22:55;;;;;;;;;;;;;;;17.49;53.41;101046.91;4092008;29;20030;-66
2023/05/11 08:24:57;;;;;;;;;;;;;;;17.50;53.33;101034.94;4092252;28;20022;-65
2023/05/11 08:26:59;;;;;;;;;;;;;;;17.58;52.83;101045.59;4092352;28;19939;-67
2023/05/11 08:29:03;;;;;;;;;;;;;;;17.62;52.84;101044.13;4092464;29;20025;-66
2023/05/11 08:31:05;;;;;;;;;;;;;;;17.60;52.81;101045.41;4092222;28;20029;-66
2023/05/11 08:33:07;;;;;;;;;;;;;;;17.61;53.21;101047.91;4091655;29;20606;-67
2023/05/11 08:35:09;;;;;;;;;;;;;;;17.65;52.34;101051.06;4074763;29;20486;-66
2023/05/11 08:37:12;;;;;;;;;;;;;;;17.71;51.92;101046.63;4092401;29;20025;-66
2023/05/11 08:39:14;;;;;;;;;;;;;;;17.75;52.39;101042.41;4091727;29;20045;-66
2023/05/11 08:41:17;;;;;;;;;;;;;;;17.76;52.33;101042.19;4092386;29;20009;-64
2023/05/11 08:43:19;;;;;;;;;;;;;;;17.77;52.23;101045.75;4091378;29;20026;-66
2023/05/11 08:45:21;;;;;;;;;;;;;;;17.75;52.50;101037.78;4092081;29;20029;-66
2023/05/11 08:47:23;;;;;;;;;;;;;;;17.81;52.70;101044.28;4091930;29;19929;-66
2023/05/11 08:49:26;;;;;;;;;;;;;;;17.85;51.95;101042.75;4092305;29;20660;-66
2023/05/11 08:51:28;;;;;;;;;;;;;;;17.88;51.95;101034.16;4091942;28;20041;-66
2023/05/11 08:53:32;;;;;;;;;;;;;;;17.88;52.31;101036.03;4088958;29;20024;-63
2023/05/11 08:55:34;;;;;;;;;;;;;;;17.92;51.91;101038.13;4058723;29;20035;-66
2023/05/11 08:57:36;;;;;;;;;;;;;;;17.93;51.82;101042.56;4091745;29;20029;-66
2023/05/11 08:59:38;;;;;;;;;;;;;;;17.96;51.96;101041.25;4091633;28;20026;-66
2023/05/11 09:01:40;;;;;;;;;;;;;;;18.03;51.53;101038.53;4091280;29;20364;-66
2023/05/11 09:03:45;;;;;;;;;;;;;;;18.08;51.25;101038.69;4091519;29;20030;-65
2023/05/11 09:05:48;;;;;;;;;;;;;;;18.10;51.19;101040.16;4103878;28;20017;-66
2023/05/11 09:07:51;;;;;;;;;;;;;;;18.16;51.01;101033.78;4114737;28;19953;-67
2023/05/11 09:09:55;;;;;;;;;;;;;;;18.14;51.30;101030.44;4114159;28;20024;-64
2023/05/11 09:11:57;;;;;;;;;;;;;;;18.16;51.08;101031.03;4113679;28;20028;-65
2023/05/11 09:13:59;;;;;;;;;;;;;;;18.16;50.96;101036.50;4115176;28;20021;-66
2023/05/11 09:16:01;;;;;;;;;;;;;;;18.20;51.19;101036.94;4113783;28;20439;-66
2023/05/11 09:18:03;;;;;;;;;;;;;;;18.22;50.55;101034.81;4114497;28;20462;-66
2023/05/11 09:20:08;;;;;;;;;;;;;;;18.23;50.99;101022.81;4113708;28;20018;-67
2023/05/11 09:22:10;;;;;;;;;;;;;;;18.24;50.98;101029.13;4114524;28;20037;-66
2023/05/11 09:24:12;;;;;;;;;;;;;;;18.26;50.64;101027.00;4114884;28;20021;-66
2023/05/11 09:26:16;;;;;;;;;;;;;;;18.32;50.25;101031.56;4112467;28;20021;-66
2023/05/11 09:28:20;;;;;;;;;;;;;;;18.35;49.53;101032.00;4112743;28;19930;-66
2023/05/11 09:30:23;;;;;;;;;;;;;;;18.35;49.75;101032.00;4114512;28;20020;-66
2023/05/11 09:32:25;;;;;;;;;;;;;;;18.32;49.82;101026.97;4114237;28;20368;-66
2023/05/11 09:34:27;;;;;;;;;;;;;;;18.32;50.16;101032.44;4114357;28;20016;-66
2023/05/11 09:36:29;;;;;;;;;;;;;;;18.32;49.69;101026.09;4114880;28;20024;-66
2023/05/11 09:38:31;;;;;;;;;;;;;;;18.36;49.52;101028.19;4111363;28;20021;-65
2023/05/11 09:40:36;;;;;;;;;;;;;;;18.39;49.56;101026.91;4114908;28;20021;-66
2023/05/11 09:42:39;;;;;;;;;;;;;;;18.41;49.26;101026.69;4113781;28;20361;-66
2023/05/11 09:44:41;;;;;;;;;;;;;;;18.39;49.09;101031.56;4114247;28;20021;-65
2023/05/11 09:46:43;;;;;;;;;;;;;;;18.46;49.33;101021.38;4113397;28;20025;-65
2023/05/11 09:48:45;;;;;;;;;;;;;;;18.48;49.41;101032.91;4114766;28;19938;-65
2023/05/11 09:50:48;;;;;;;;;;;;;;;18.49;47.74;101031.88;4114509;28;20389;-66
2023/05/11 09:52:50;;;;;;;;;;;;;;;18.52;48.61;101025.97;4111518;28;20024;-66
2023/05/11 09:54:53;;;;;;;;;;;;;;;18.58;48.50;101024.25;4113994;28;20048;-66
2023/05/11 09:56:57;;;;;;;;;;;;;;;18.57;48.14;101023.38;4111937;28;20336;-66
2023/05/11 09:59:00;;;;;;;;;;;;;;;18.59;48.43;101025.91;4113494;28;20016;-66
2023/05/11 10:01:02;;;;;;;;;;;;;;;18.61;48.66;101023.78;4113940;28;20008;-66
2023/05/11 10:03:04;;;;;;;;;;;;;;;18.62;47.84;101018.09;4113440;28;20020;-66
2023/05/11 10:05:11;;;;;;;;;;;;;;;18.63;47.71;101016.19;4113782;28;20021;-66
2023/05/11 10:07:23;;;;;;;;;;;;;;;18.64;48.01;101021.44;4114444;28;20016;-64
2023/05/11 10:09:25;;;;;;;;;;;;;;;18.65;48.04;101023.13;4113689;28;20411;-65
2023/05/11 10:11:27;;;;;;;;;;;;;;;18.65;47.78;101025.88;4114215;28;20025;-66
2023/05/11 10:13:29;;;;;;;;;;;;;;;18.68;47.53;101025.41;4112709;28;20030;-65
2023/05/11 10:15:32;;;;;;;;;;;;;;;18.69;47.04;101024.34;4113812;28;20020;-65
2023/05/11 10:17:35;;;;;;;;;;;;;;;18.75;46.92;101021.78;4114201;28;20464;-64
2023/05/11 10:19:37;;;;;;;;;;;;;;;18.77;47.17;101016.91;4113836;28;20095;-64
2023/05/11 10:21:39;;;;;;;;;;;;;;;18.79;47.34;101010.13;4103921;28;19962;-65
2023/05/11 10:23:43;;;;;;;;;;;;;;;18.77;47.68;101009.53;4113339;28;20005;-65
2023/05/11 10:25:45;;;;;;;;;;;;;;;18.80;46.85;101002.78;4113870;28;20020;-64
2023/05/11 10:27:47;;;;;;;;;;;;;;;18.85;46.80;101005.72;4114117;28;20045;-65
2023/05/11 10:29:49;;;;;;;;;;;;;;;18.85;46.79;101005.72;4113168;28;20025;-65
2023/05/11 10:31:52;;;;;;;;;;;;;;;18.85;46.98;101011.19;4113193;28;20011;-65